createdAt,value
2022-11-16T00:04:06.883Z,20.20
2022-11-16T00:09:23.404Z,16.17
2022-11-16T00:14:28.894Z,17.65
2022-11-16T00:19:30.293Z,15.13
2022-11-16T00:24:31.172Z,16.48
2022-11-16T00:29:33.300Z,14.98
2022-11-16T00:34:34.313Z,15.68
2022-11-16T00:39:35.263Z,19.67
2022-11-16T00:44:37.411Z,12.30
2022-11-16T00:49:38.564Z,16.42
2022-11-16T00:54:39.476Z,14.13
2022-11-16T00:59:41.854Z,15.27
2022-11-16T01:04:42.671Z,13.52
2022-11-16T01:09:43.456Z,14.75
2022-11-16T01:14:48.102Z,14.82
2022-11-16T01:19:48.854Z,16.33
2022-11-16T01:24:49.829Z,15.88
2022-11-16T01:29:51.995Z,13.85
2022-11-16T01:34:52.833Z,18.20
2022-11-16T01:39:58.984Z,13.45
2022-11-16T01:45:06.531Z,15.80
2022-11-16T01:50:11.729Z,16.85
2022-11-16T01:55:15.412Z,17.50
2022-11-16T02:00:43.831Z,19.17
2022-11-16T02:06:25.330Z,19.95
2022-11-16T02:11:54.104Z,17.30
2022-11-16T02:17:06.201Z,17.27
2022-11-16T02:22:25.594Z,15.52
2022-11-16T02:27:50.696Z,19.25
2022-11-16T02:32:56.333Z,18.88
2022-11-16T02:38:01.037Z,18.02
2022-11-16T02:43:08.113Z,16.55
2022-11-16T02:48:16.072Z,19.02
2022-11-16T02:53:16.874Z,17.80
2022-11-16T02:58:21.411Z,17.00
2022-11-16T03:03:32.819Z,18.75
2022-11-16T03:08:37.667Z,18.42
2022-11-16T03:13:41.777Z,15.73
2022-11-16T03:18:45.680Z,15.75
2022-11-16T03:23:47.435Z,13.38
2022-11-16T03:28:56.304Z,11.43
2022-11-16T03:34:01.493Z,14.80
2022-11-16T03:39:09.413Z,13.90
2022-11-16T03:44:14.598Z,18.23
2022-11-16T03:49:16.777Z,12.55
2022-11-16T03:54:18.845Z,14.25
2022-11-16T03:59:19.831Z,13.18
2022-11-16T04:04:39.577Z,16.42
2022-11-16T04:10:00.113Z,14.10
2022-11-16T04:15:18.457Z,13.48
2022-11-16T04:20:38.321Z,12.93
2022-11-16T04:25:41.209Z,11.77
2022-11-16T04:31:09.281Z,12.73
2022-11-16T04:36:30.700Z,13.63
2022-11-16T04:41:50.522Z,12.52
2022-11-16T04:47:10.156Z,10.15
2022-11-16T04:52:14.199Z,12.18
2022-11-16T04:57:16.732Z,10.52
2022-11-16T05:02:18.191Z,10.93
2022-11-16T05:07:28.424Z,9.23
2022-11-16T05:12:37.402Z,9.50
2022-11-16T05:17:40.627Z,9.82
2022-11-16T05:22:55.036Z,10.77
2022-11-16T05:27:57.581Z,10.25
2022-11-16T05:32:58.383Z,10.88
2022-11-16T05:38:00.848Z,10.70
2022-11-16T05:43:02.397Z,8.73
2022-11-16T05:48:09.141Z,11.95
2022-11-16T05:53:11.611Z,10.35
2022-11-16T05:58:13.247Z,11.00
2022-11-16T06:03:14.399Z,11.88
2022-11-16T06:08:16.617Z,10.45
2022-11-16T06:13:17.674Z,11.88
2022-11-16T06:18:19.063Z,11.05
2022-11-16T06:23:21.697Z,12.63
2022-11-16T06:28:23.773Z,13.90
2022-11-16T06:33:25.677Z,13.20
2022-11-16T06:38:30.412Z,14.27
2022-11-16T06:43:31.485Z,13.48
2022-11-16T06:48:34.795Z,11.20
2022-11-16T06:53:41.147Z,11.95
2022-11-16T06:58:43.002Z,11.27
2022-11-16T07:03:45.232Z,12.30
2022-11-16T07:08:49.218Z,11.90
2022-11-16T07:13:56.561Z,9.90
2022-11-16T07:18:59.027Z,13.38
2022-11-16T07:24:03.632Z,11.48
2022-11-16T07:29:05.755Z,9.98
2022-11-16T07:34:08.620Z,11.80
2022-11-16T07:39:25.298Z,14.27
2022-11-16T07:44:28.090Z,9.98
2022-11-16T07:49:39.322Z,10.88
2022-11-16T07:54:51.343Z,13.63
2022-11-16T07:59:53.406Z,10.70
2022-11-16T08:04:54.483Z,10.73
2022-11-16T08:10:00.758Z,12.65
2022-11-16T08:15:01.846Z,13.27
2022-11-16T08:20:02.946Z,12.45
2022-11-16T08:25:07.008Z,10.20
2022-11-16T08:30:10.013Z,12.68
2022-11-16T08:35:12.736Z,10.25
2022-11-16T08:40:15.920Z,15.43
2022-11-16T08:45:17.830Z,15.00
2022-11-16T08:50:19.557Z,11.27
2022-11-16T08:55:21.699Z,11.30
2022-11-16T09:00:22.622Z,12.27
2022-11-16T09:05:23.427Z,14.23
2022-11-16T09:10:26.085Z,11.50
2022-11-16T09:15:28.060Z,10.93
2022-11-16T09:20:29.331Z,11.32
2022-11-16T09:25:31.465Z,11.82
2022-11-16T09:30:32.357Z,10.65
2022-11-16T09:35:34.965Z,10.25
2022-11-16T09:40:39.463Z,9.43
2022-11-16T09:45:45.962Z,12.90
2022-11-16T09:50:49.619Z,13.13
2022-11-16T09:55:54.018Z,10.27
2022-11-16T10:00:59.891Z,12.40
2022-11-16T10:06:03.906Z,9.43
2022-11-16T10:11:24.242Z,8.40
2022-11-16T10:16:35.852Z,9.40
2022-11-16T10:21:51.534Z,9.25
2022-11-16T10:27:03.332Z,8.02
2022-11-16T10:32:18.073Z,7.70
2022-11-16T10:37:18.963Z,7.95
2022-11-16T10:42:27.898Z,5.90
2022-11-16T10:47:38.533Z,6.43
2022-11-16T10:52:39.324Z,6.65
2022-11-16T10:57:57.724Z,8.70
2022-11-16T11:02:58.521Z,6.25
2022-11-16T11:08:04.683Z,7.13
2022-11-16T11:13:21.822Z,6.45
2022-11-16T11:18:27.895Z,4.40
2022-11-16T11:23:29.282Z,6.18
2022-11-16T11:28:33.535Z,4.07
2022-11-16T11:33:37.532Z,4.53
2022-11-16T11:39:00.231Z,6.22
2022-11-16T11:44:04.320Z,4.10
2022-11-16T11:49:14.494Z,4.47
2022-11-16T11:54:19.098Z,4.90
2022-11-16T11:59:24.613Z,4.15
2022-11-16T12:04:58.211Z,5.18
2022-11-16T12:10:08.749Z,4.38
2022-11-16T12:15:32.678Z,8.98
2022-11-16T12:20:44.095Z,7.72
2022-11-16T12:25:55.773Z,6.15
2022-11-16T12:31:12.887Z,6.45
2022-11-16T12:36:25.732Z,3.38
2022-11-16T12:41:50.125Z,4.72
2022-11-16T12:47:01.109Z,4.20
2022-11-16T12:52:14.780Z,4.25
2022-11-16T12:57:26.064Z,4.03
2022-11-16T13:02:42.235Z,3.97
2022-11-16T13:07:46.656Z,4.43
2022-11-16T13:12:55.869Z,4.15
2022-11-16T13:18:09.088Z,3.88
2022-11-16T13:23:15.661Z,4.10
2022-11-16T13:28:25.433Z,5.03
2022-11-16T13:33:40.703Z,6.20
2022-11-16T13:38:52.226Z,5.30
2022-11-16T13:43:53.131Z,8.02
2022-11-16T13:48:55.265Z,8.50
2022-11-16T13:59:17.741Z,9.73
2022-11-16T14:04:55.783Z,10.60
2022-11-16T14:09:56.663Z,11.80
2022-11-16T14:15:13.540Z,10.82
2022-11-16T14:20:21.162Z,9.77
2022-11-16T14:25:33.271Z,13.00
2022-11-16T14:30:44.700Z,11.48
2022-11-16T14:35:52.571Z,18.58
2022-11-16T14:40:59.724Z,19.08
2022-11-16T14:46:05.307Z,16.75
2022-11-16T14:51:11.515Z,19.63
2022-11-16T14:56:14.315Z,19.52
2022-11-16T15:01:15.942Z,16.80
2022-11-16T15:06:18.181Z,22.27
2022-11-16T15:11:25.823Z,18.20
2022-11-16T15:16:26.615Z,19.90
2022-11-16T15:21:29.823Z,16.88
2022-11-16T15:26:30.644Z,15.95
2022-11-16T15:31:31.485Z,20.83
2022-11-16T15:36:40.135Z,21.25
2022-11-16T15:41:41.273Z,24.13
2022-11-16T15:46:43.433Z,20.75
2022-11-16T15:51:45.792Z,24.27
2022-11-16T15:56:46.657Z,20.92
2022-11-16T16:01:47.758Z,22.02
2022-11-16T16:06:51.674Z,21.92
2022-11-16T16:11:52.831Z,21.67
2022-11-16T16:16:55.727Z,21.00
2022-11-16T16:21:58.637Z,22.77
2022-11-16T16:26:59.456Z,25.23
2022-11-16T16:32:00.310Z,24.75
2022-11-16T16:37:02.512Z,23.60
2022-11-16T16:42:04.207Z,22.98
2022-11-16T16:47:05.184Z,26.42
2022-11-16T16:52:08.239Z,22.13
2022-11-16T16:57:14.237Z,23.92
2022-11-16T17:02:15.547Z,26.58
2022-11-16T17:07:17.941Z,28.02
2022-11-16T17:12:18.918Z,25.23
2022-11-16T17:17:20.304Z,27.20
2022-11-16T17:22:22.788Z,23.25
2022-11-16T17:27:23.649Z,31.40
2022-11-16T17:32:24.512Z,25.50
2022-11-16T17:37:26.763Z,25.98
2022-11-16T17:42:27.550Z,29.13
2022-11-16T17:47:28.370Z,21.90
2022-11-16T17:52:30.516Z,24.45
2022-11-16T17:57:31.393Z,25.70
2022-11-16T18:02:32.488Z,30.17
2022-11-16T18:07:36.177Z,26.77
2022-11-16T18:12:38.524Z,24.42
2022-11-16T18:17:39.334Z,29.38
2022-11-16T18:22:41.470Z,29.10
2022-11-16T18:27:42.257Z,34.28
2022-11-16T18:32:43.082Z,25.17
2022-11-16T18:37:45.205Z,21.67
2022-11-16T18:42:46.040Z,19.20
2022-11-16T18:47:47.063Z,16.25
2022-11-16T18:52:49.228Z,11.93
2022-11-16T18:57:50.131Z,12.20
2022-11-16T19:02:50.945Z,11.35
2022-11-16T19:07:53.188Z,10.40
2022-11-16T19:12:54.008Z,9.95
2022-11-16T19:18:19.775Z,7.03
2022-11-16T19:23:16.943Z,9.93
2022-11-16T19:28:17.768Z,9.65
2022-11-16T19:33:18.545Z,9.13
2022-11-16T19:38:20.697Z,7.43
2022-11-16T19:43:21.743Z,7.05
2022-11-16T19:48:22.664Z,6.75
2022-11-16T19:53:24.879Z,6.68
2022-11-16T19:58:25.657Z,8.90
2022-11-16T20:03:26.603Z,7.80
2022-11-16T20:08:28.890Z,7.55
2022-11-16T20:13:29.679Z,6.70
2022-11-16T20:18:32.045Z,8.63
2022-11-16T20:23:35.476Z,7.25
2022-11-16T20:28:37.011Z,6.18
2022-11-16T20:33:38.238Z,5.72
2022-11-16T20:38:41.186Z,6.60
2022-11-16T20:43:43.434Z,3.80
2022-11-16T20:48:44.900Z,5.40
2022-11-16T20:53:48.703Z,5.05
2022-11-16T20:58:50.545Z,5.72
2022-11-16T21:03:51.318Z,5.03
2022-11-16T21:08:53.698Z,6.57
2022-11-16T21:14:12.161Z,6.47
2022-11-16T21:19:13.941Z,8.52
2022-11-16T21:24:16.058Z,7.47
2022-11-16T21:29:16.865Z,6.65
2022-11-16T21:34:18.790Z,7.20
2022-11-16T21:39:20.902Z,5.95
2022-11-16T21:44:21.666Z,6.82
2022-11-16T21:49:22.413Z,5.80
2022-11-16T21:54:44.626Z,7.45
2022-11-16T21:59:45.439Z,9.80
2022-11-16T22:05:03.638Z,4.75
2022-11-16T22:10:08.531Z,6.28
2022-11-16T22:15:10.247Z,6.50
2022-11-16T22:20:11.716Z,7.93
2022-11-16T22:25:14.178Z,6.28
2022-11-16T22:30:16.220Z,8.25
2022-11-16T22:35:17.168Z,7.80
2022-11-16T22:40:19.297Z,8.82
2022-11-16T22:45:20.049Z,9.40
2022-11-16T22:50:21.271Z,6.43
2022-11-16T22:55:23.474Z,5.70
2022-11-16T23:00:24.244Z,5.38
2022-11-16T23:05:25.014Z,5.93
2022-11-16T23:10:27.290Z,8.05
2022-11-16T23:15:45.787Z,7.82
2022-11-16T23:21:03.918Z,7.25
2022-11-16T23:26:30.287Z,5.13
2022-11-16T23:31:31.062Z,7.03
2022-11-16T23:36:31.826Z,7.95
2022-11-16T23:41:51.555Z,7.70
2022-11-16T23:46:52.335Z,8.90
2022-11-16T23:51:53.122Z,6.57
2022-11-16T23:56:55.219Z,7.40
